createdAt,value
2019-03-24T00:02:35.680Z,87.17
2019-03-24T00:05:08.080Z,87.69
2019-03-24T00:07:39.879Z,87.40
2019-03-24T00:10:12.035Z,87.73
2019-03-24T00:12:43.737Z,87.27
2019-03-24T00:15:25.412Z,87.42
2019-03-24T00:17:48.779Z,87.48
2019-03-24T00:20:20.149Z,87.65
2019-03-24T00:22:52.306Z,87.49
2019-03-24T00:25:23.903Z,87.68
2019-03-24T00:27:55.763Z,87.86
2019-03-24T00:30:27.022Z,87.53
2019-03-24T00:32:58.607Z,88.02
2019-03-24T00:35:30.469Z,88.26
2019-03-24T00:38:01.688Z,88.30
2019-03-24T00:40:33.137Z,88.31
2019-03-24T00:43:04.658Z,88.47
2019-03-24T00:45:37.088Z,88.49
2019-03-24T00:48:09.533Z,88.72
2019-03-24T00:50:40.824Z,88.80
2019-03-24T00:53:12.154Z,88.61
2019-03-24T00:55:43.797Z,89.22
2019-03-24T00:58:15.166Z,89.08
2019-03-24T01:00:51.482Z,89.24
2019-03-24T01:03:23.052Z,89.22
2019-03-24T01:05:54.456Z,89.27
2019-03-24T01:08:25.913Z,89.67
2019-03-24T01:10:57.294Z,90.01
2019-03-24T01:13:28.592Z,89.91
2019-03-24T01:16:00.339Z,90.11
2019-03-24T01:18:31.640Z,90.54
2019-03-24T01:21:02.945Z,90.47
2019-03-24T01:23:34.362Z,90.68
2019-03-24T01:26:06.246Z,90.77
2019-03-24T01:28:37.919Z,90.87
2019-03-24T01:31:09.257Z,90.87
2019-03-24T01:33:40.710Z,90.95
2019-03-24T01:36:12.023Z,90.59
2019-03-24T01:38:44.042Z,90.88
2019-03-24T01:41:15.338Z,90.66
2019-03-24T01:43:46.913Z,90.65
2019-03-24T01:46:18.312Z,90.47
2019-03-24T01:48:49.587Z,91.04
2019-03-24T01:51:21.159Z,90.96
2019-03-24T01:53:52.844Z,91.08
2019-03-24T01:56:25.260Z,90.91
2019-03-24T01:58:56.534Z,91.13
2019-03-24T02:01:27.978Z,91.26
2019-03-24T02:03:59.316Z,91.19
2019-03-24T02:06:30.988Z,91.23
2019-03-24T02:09:02.288Z,91.34
2019-03-24T02:11:33.549Z,91.58
2019-03-24T02:14:04.938Z,91.40
2019-03-24T02:16:36.214Z,91.58
2019-03-24T02:19:07.846Z,91.26
2019-03-24T02:21:39.301Z,91.46
2019-03-24T02:24:10.580Z,91.11
2019-03-24T02:26:41.891Z,91.18
2019-03-24T02:29:13.670Z,91.18
2019-03-24T02:31:45.631Z,91.30
2019-03-24T02:34:17.184Z,91.06
2019-03-24T02:36:48.614Z,91.19
2019-03-24T02:39:20.292Z,91.10
2019-03-24T02:41:51.840Z,91.34
2019-03-24T02:44:23.192Z,91.13
2019-03-24T02:46:54.515Z,91.40
2019-03-24T02:49:26.040Z,91.57
2019-03-24T02:51:57.315Z,91.40
2019-03-24T02:54:28.563Z,91.83
2019-03-24T02:57:00.048Z,92.10
2019-03-24T02:59:31.521Z,91.95
2019-03-24T03:02:02.828Z,92.09
2019-03-24T03:04:34.572Z,91.88
2019-03-24T03:07:05.903Z,92.03
2019-03-24T03:09:37.502Z,91.62
2019-03-24T03:12:08.905Z,91.76
2019-03-24T03:14:40.183Z,91.72
2019-03-24T03:17:11.780Z,91.89
2019-03-24T03:19:43.101Z,92.24
2019-03-24T03:22:14.414Z,92.10
2019-03-24T03:24:45.688Z,92.27
2019-03-24T03:27:17.140Z,92.28
2019-03-24T03:29:48.439Z,92.29
2019-03-24T03:32:20.061Z,92.45
2019-03-24T03:34:51.472Z,92.36
2019-03-24T03:37:22.825Z,92.09
2019-03-24T03:39:57.676Z,92.38
2019-03-24T03:42:27.261Z,92.18
2019-03-24T03:44:58.560Z,92.35
2019-03-24T03:47:30.318Z,92.53
2019-03-24T03:50:02.150Z,92.82
2019-03-24T03:52:33.466Z,92.94
2019-03-24T03:55:05.030Z,92.94
2019-03-24T03:57:36.508Z,93.10
2019-03-24T04:00:10.737Z,92.89
2019-03-24T04:02:42.062Z,92.94
2019-03-24T04:05:13.351Z,93.24
2019-03-24T04:07:44.997Z,93.11
2019-03-24T04:10:16.341Z,92.98
2019-03-24T04:12:47.758Z,92.72
2019-03-24T04:15:19.046Z,92.84
2019-03-24T04:17:50.494Z,92.75
2019-03-24T04:20:22.073Z,92.99
2019-03-24T04:22:53.336Z,93.31
2019-03-24T04:25:24.689Z,92.94
2019-03-24T04:27:55.999Z,92.90
2019-03-24T04:30:27.309Z,92.94
2019-03-24T04:32:58.976Z,92.73
2019-03-24T04:35:30.252Z,92.27
2019-03-24T04:38:01.802Z,91.79
2019-03-24T04:40:33.209Z,91.63
2019-03-24T04:43:04.908Z,91.44
2019-03-24T04:45:36.223Z,91.42
2019-03-24T04:48:07.607Z,91.17
2019-03-24T04:50:39.452Z,90.62
2019-03-24T04:53:10.747Z,90.88
2019-03-24T04:55:42.027Z,90.81
2019-03-24T04:58:13.348Z,90.42
2019-03-24T05:00:44.673Z,89.57
2019-03-24T05:03:15.972Z,89.53
2019-03-24T05:05:47.957Z,89.76
2019-03-24T05:08:19.550Z,89.36
2019-03-24T05:10:50.834Z,89.56
2019-03-24T05:13:22.644Z,89.60
2019-03-24T05:15:53.962Z,88.94
2019-03-24T05:18:25.243Z,88.89
2019-03-24T05:20:56.585Z,89.24
2019-03-24T05:23:28.163Z,88.88
2019-03-24T05:25:59.475Z,88.63
2019-03-24T05:28:30.865Z,88.52
2019-03-24T05:31:02.177Z,88.57
2019-03-24T05:33:33.403Z,87.69
2019-03-24T05:36:05.081Z,87.91
2019-03-24T05:38:36.875Z,87.85
2019-03-24T05:41:08.271Z,87.80
2019-03-24T05:43:40.392Z,87.28
2019-03-24T05:46:11.837Z,87.44
2019-03-24T05:48:43.154Z,87.26
2019-03-24T05:51:14.449Z,87.08
2019-03-24T05:53:47.041Z,86.97
2019-03-24T05:56:18.347Z,87.36
2019-03-24T05:58:49.630Z,87.54
2019-03-24T06:01:21.240Z,87.06
2019-03-24T06:03:52.766Z,86.79
2019-03-24T06:06:24.391Z,86.02
2019-03-24T06:08:55.622Z,86.75
2019-03-24T06:11:26.987Z,86.35
2019-03-24T06:13:58.673Z,85.75
2019-03-24T06:16:30.328Z,85.79
2019-03-24T06:19:01.643Z,85.64
2019-03-24T06:21:32.904Z,85.30
2019-03-24T06:24:04.663Z,85.84
2019-03-24T06:26:36.321Z,85.05
2019-03-24T06:29:07.636Z,85.47
2019-03-24T06:31:39.186Z,85.21
2019-03-24T06:34:10.859Z,85.37
2019-03-24T06:36:42.183Z,85.12
2019-03-24T06:39:13.524Z,85.07
2019-03-24T06:41:44.862Z,84.83
2019-03-24T06:44:16.388Z,84.91
2019-03-24T06:46:47.590Z,84.17
2019-03-24T06:49:18.896Z,85.05
2019-03-24T06:51:50.803Z,84.75
2019-03-24T06:54:22.500Z,84.15
2019-03-24T06:56:55.360Z,84.00
2019-03-24T06:59:26.766Z,83.32
2019-03-24T07:01:58.471Z,83.77
2019-03-24T07:04:30.116Z,83.47
2019-03-24T07:07:02.260Z,83.74
2019-03-24T07:09:34.036Z,84.07
2019-03-24T07:12:05.401Z,83.19
2019-03-24T07:14:40.343Z,83.34
2019-03-24T07:17:11.817Z,82.78
2019-03-24T07:19:43.618Z,82.75
2019-03-24T07:22:15.019Z,82.28
2019-03-24T07:24:46.560Z,81.70
2019-03-24T07:27:21.421Z,81.22
2019-03-24T07:29:53.194Z,81.66
2019-03-24T07:32:25.942Z,81.58
2019-03-24T07:34:57.389Z,80.55
2019-03-24T07:37:28.956Z,80.17
2019-03-24T07:40:00.540Z,79.37
2019-03-24T07:42:32.209Z,79.20
2019-03-24T07:45:04.094Z,77.57
2019-03-24T07:47:35.558Z,76.22
2019-03-24T07:50:09.219Z,75.95
2019-03-24T07:52:40.982Z,75.74
2019-03-24T07:55:12.439Z,74.91
2019-03-24T07:57:44.064Z,73.68
2019-03-24T08:00:25.266Z,73.10
2019-03-24T08:02:56.995Z,73.46
2019-03-24T08:05:28.517Z,71.67
2019-03-24T08:08:07.722Z,70.53
2019-03-24T08:10:39.096Z,67.37
2019-03-24T08:13:10.454Z,65.49
2019-03-24T08:15:42.162Z,63.39
2019-03-24T08:18:13.748Z,62.55
2019-03-24T08:20:46.232Z,63.47
2019-03-24T08:23:17.849Z,62.85
2019-03-24T08:25:49.166Z,63.80
2019-03-24T08:28:23.062Z,62.72
2019-03-24T08:30:53.839Z,62.03
2019-03-24T08:33:25.277Z,61.65
2019-03-24T08:35:56.869Z,60.88
2019-03-24T08:38:28.200Z,61.97
2019-03-24T08:41:00.291Z,61.35
2019-03-24T08:43:31.678Z,61.87
2019-03-24T08:46:03.173Z,62.52
2019-03-24T08:48:40.925Z,63.30
2019-03-24T08:51:07.857Z,63.96
2019-03-24T08:53:40.094Z,64.74
2019-03-24T08:56:12.422Z,64.42
2019-03-24T08:58:43.788Z,64.45
2019-03-24T09:01:15.178Z,65.07
2019-03-24T09:03:46.589Z,64.36
2019-03-24T09:06:17.963Z,64.76
2019-03-24T09:08:49.416Z,65.08
2019-03-24T09:11:30.890Z,63.88
2019-03-24T09:13:55.034Z,63.90
2019-03-24T09:16:26.557Z,62.65
2019-03-24T09:18:58.385Z,60.35
2019-03-24T09:21:29.763Z,59.87
2019-03-24T09:24:01.975Z,59.18
2019-03-24T09:26:33.307Z,59.34
2019-03-24T09:29:04.686Z,58.04
2019-03-24T09:31:36.043Z,56.59
2019-03-24T09:34:07.371Z,55.39
2019-03-24T09:36:39.123Z,54.21
2019-03-24T09:39:10.526Z,54.59
2019-03-24T09:41:41.942Z,53.15
2019-03-24T09:44:13.664Z,53.45
2019-03-24T09:46:45.969Z,52.77
2019-03-24T09:49:17.584Z,51.29
2019-03-24T09:51:48.899Z,52.59
2019-03-24T09:54:20.405Z,51.93
2019-03-24T09:56:51.834Z,52.13
2019-03-24T09:59:23.136Z,53.29
2019-03-24T10:01:54.492Z,53.58
2019-03-24T10:04:25.796Z,53.94
2019-03-24T10:06:57.267Z,53.12
2019-03-24T10:09:28.553Z,53.86
2019-03-24T10:12:00.510Z,54.74
2019-03-24T10:14:33.328Z,54.18
2019-03-24T10:17:13.791Z,53.49
2019-03-24T10:19:50.927Z,52.67
2019-03-24T10:22:22.457Z,52.42
2019-03-24T10:25:05.930Z,51.37
2019-03-24T10:27:38.088Z,49.20
2019-03-24T10:30:12.338Z,47.96
2019-03-24T10:32:44.221Z,46.61
2019-03-24T10:35:15.907Z,45.47
2019-03-24T10:37:48.065Z,45.44
2019-03-24T10:40:28.514Z,44.32
2019-03-24T10:42:54.983Z,42.95
2019-03-24T10:45:28.021Z,43.39
2019-03-24T10:48:00.115Z,41.91
2019-03-24T10:50:32.388Z,42.14
2019-03-24T10:53:08.245Z,43.14
2019-03-24T10:55:51.824Z,44.45
2019-03-24T10:58:24.191Z,43.58
2019-03-24T11:00:56.113Z,41.24
2019-03-24T11:03:27.665Z,41.51
2019-03-24T11:06:03.945Z,40.33
2019-03-24T11:08:35.805Z,40.04
2019-03-24T11:11:08.310Z,39.79
2019-03-24T11:13:39.768Z,39.41
2019-03-24T11:16:12.040Z,39.37
2019-03-24T11:18:45.333Z,39.68
2019-03-24T11:21:17.051Z,40.48
2019-03-24T11:23:48.725Z,41.84
2019-03-24T11:26:20.185Z,41.08
2019-03-24T11:28:51.718Z,39.76
2019-03-24T11:31:23.469Z,39.89
2019-03-24T11:33:55.571Z,39.59
2019-03-24T11:36:27.361Z,39.32
2019-03-24T11:38:59.306Z,39.05
2019-03-24T11:41:31.169Z,38.79
2019-03-24T11:44:03.378Z,38.27
2019-03-24T11:46:35.193Z,38.98
2019-03-24T11:49:16.357Z,36.99
2019-03-24T11:51:48.076Z,37.85
2019-03-24T11:54:21.167Z,36.71
2019-03-24T11:56:53.086Z,36.37
2019-03-24T11:59:24.877Z,38.10
2019-03-24T12:01:56.815Z,38.48
2019-03-24T12:04:28.502Z,38.94
2019-03-24T12:07:00.817Z,38.13
2019-03-24T12:09:33.602Z,37.68
2019-03-24T12:12:07.803Z,37.70
2019-03-24T12:14:45.421Z,39.16
2019-03-24T12:17:28.456Z,38.48
2019-03-24T12:20:07.926Z,38.47
2019-03-24T12:23:09.682Z,38.82
2019-03-24T12:25:44.190Z,37.38
2019-03-24T12:28:18.132Z,37.27
2019-03-24T12:30:56.422Z,35.51
2019-03-24T12:33:46.214Z,33.24
2019-03-24T12:36:19.749Z,34.85
2019-03-24T12:41:20.694Z,35.45
2019-03-24T12:43:52.633Z,35.29
2019-03-24T12:46:24.712Z,34.90
2019-03-24T12:48:56.153Z,34.67
2019-03-24T12:51:27.645Z,34.13
2019-03-24T12:53:59.659Z,33.79
2019-03-24T12:56:31.421Z,34.74
2019-03-24T12:59:02.947Z,33.61
2019-03-24T13:01:35.394Z,34.63
2019-03-24T13:04:06.883Z,33.47
2019-03-24T13:06:38.648Z,34.35
2019-03-24T13:09:10.823Z,34.85
2019-03-24T13:11:42.314Z,34.77
2019-03-24T13:14:13.706Z,35.16
2019-03-24T13:16:45.220Z,35.79
2019-03-24T13:19:16.858Z,36.28
2019-03-24T13:21:48.253Z,37.78
2019-03-24T13:24:19.829Z,36.35
2019-03-24T13:26:51.232Z,36.89
2019-03-24T13:29:22.771Z,37.09
2019-03-24T13:31:54.363Z,37.75
2019-03-24T13:34:25.807Z,36.29
2019-03-24T13:36:57.216Z,36.15
2019-03-24T13:39:29.013Z,35.88
2019-03-24T13:42:01.776Z,36.50
2019-03-24T13:44:33.837Z,35.41
2019-03-24T13:47:05.360Z,35.23
2019-03-24T13:49:37.134Z,35.13
2019-03-24T13:52:08.596Z,35.04
2019-03-24T13:54:40.040Z,34.89
2019-03-24T13:57:11.429Z,33.89
2019-03-24T13:59:43.133Z,33.92
2019-03-24T14:02:14.531Z,33.16
2019-03-24T14:04:47.506Z,32.78
2019-03-24T14:07:20.829Z,32.98
2019-03-24T14:09:52.190Z,34.11
2019-03-24T14:12:23.806Z,35.00
2019-03-24T14:14:55.406Z,34.95
2019-03-24T14:17:26.897Z,35.72
2019-03-24T14:19:58.172Z,35.71
2019-03-24T14:22:29.426Z,32.61
2019-03-24T14:25:00.654Z,32.82
2019-03-24T14:27:31.939Z,32.67
2019-03-24T14:30:03.624Z,32.34
2019-03-24T14:32:35.292Z,32.92
2019-03-24T14:35:07.028Z,33.63
2019-03-24T14:37:38.843Z,33.82
2019-03-24T14:40:10.624Z,34.01
2019-03-24T14:42:42.054Z,33.84
2019-03-24T14:45:13.676Z,33.83
2019-03-24T14:47:45.291Z,34.58
2019-03-24T14:50:16.690Z,35.87
2019-03-24T14:52:48.008Z,35.42
2019-03-24T14:55:19.436Z,34.60
2019-03-24T14:57:50.734Z,34.96
2019-03-24T15:00:37.352Z,35.36
2019-03-24T15:03:08.847Z,36.63
2019-03-24T15:05:40.133Z,35.58
2019-03-24T15:08:12.631Z,35.18
2019-03-24T15:10:44.269Z,35.63
2019-03-24T15:13:15.524Z,36.05
2019-03-24T15:15:46.956Z,36.58
2019-03-24T15:18:18.241Z,37.13
2019-03-24T15:20:49.550Z,37.86
2019-03-24T15:23:20.916Z,37.75
2019-03-24T15:25:52.213Z,37.21
2019-03-24T15:28:23.775Z,38.09
2019-03-24T15:30:56.066Z,39.91
2019-03-24T15:33:27.728Z,40.19
2019-03-24T15:35:59.278Z,41.58
2019-03-24T15:38:30.878Z,41.81
2019-03-24T15:41:02.236Z,42.77
2019-03-24T15:43:33.556Z,42.75
2019-03-24T15:46:05.485Z,44.07
2019-03-24T15:48:36.715Z,45.15
2019-03-24T15:51:16.318Z,46.12
2019-03-24T15:53:41.847Z,45.99
2019-03-24T15:56:13.403Z,45.55
2019-03-24T15:58:44.714Z,45.41
2019-03-24T16:01:16.043Z,44.16
2019-03-24T16:03:47.547Z,41.64
2019-03-24T16:06:18.930Z,39.31
2019-03-24T16:08:50.277Z,39.80
2019-03-24T16:11:21.575Z,39.45
2019-03-24T16:13:53.120Z,39.04
2019-03-24T16:16:24.536Z,40.46
2019-03-24T16:18:55.880Z,40.92
2019-03-24T16:21:30.177Z,41.88
2019-03-24T16:24:00.829Z,42.68
2019-03-24T16:26:32.181Z,43.89
2019-03-24T16:29:04.252Z,43.64
2019-03-24T16:31:35.654Z,45.03
2019-03-24T16:34:07.632Z,45.22
2019-03-24T16:36:39.265Z,46.27
2019-03-24T16:39:10.933Z,47.02
2019-03-24T16:41:42.344Z,47.21
2019-03-24T16:44:13.726Z,47.35
2019-03-24T16:46:45.491Z,47.89
2019-03-24T16:49:16.777Z,47.83
2019-03-24T16:51:48.478Z,48.69
2019-03-24T16:54:19.843Z,49.56
2019-03-24T16:56:51.170Z,49.25
2019-03-24T16:59:22.492Z,48.98
2019-03-24T17:01:54.071Z,49.80
2019-03-24T17:04:25.522Z,50.30
2019-03-24T17:06:56.878Z,50.31
2019-03-24T17:09:28.328Z,50.28
2019-03-24T17:11:59.648Z,50.21
2019-03-24T17:14:30.888Z,51.13
2019-03-24T17:17:02.606Z,51.19
2019-03-24T17:19:33.866Z,51.03
2019-03-24T17:22:05.249Z,51.41
2019-03-24T17:24:36.569Z,51.74
2019-03-24T17:27:07.924Z,52.10
2019-03-24T17:29:39.319Z,53.23
2019-03-24T17:32:11.217Z,54.36
2019-03-24T17:34:42.517Z,55.08
2019-03-24T17:37:13.801Z,55.70
2019-03-24T17:39:45.100Z,55.84
2019-03-24T17:42:16.750Z,55.38
2019-03-24T17:44:48.388Z,54.62
2019-03-24T17:47:19.805Z,52.57
2019-03-24T17:49:51.112Z,51.39
2019-03-24T17:52:22.443Z,50.99
2019-03-24T17:54:53.806Z,50.74
2019-03-24T17:57:25.288Z,50.73
2019-03-24T17:59:56.862Z,50.51
2019-03-24T18:02:28.204Z,50.39
2019-03-24T18:04:59.840Z,51.51
2019-03-24T18:07:31.196Z,50.74
2019-03-24T18:10:02.616Z,50.77
2019-03-24T18:12:33.936Z,50.86
2019-03-24T18:15:05.799Z,51.37
2019-03-24T18:17:37.143Z,52.11
2019-03-24T18:20:09.606Z,52.33
2019-03-24T18:22:41.156Z,53.79
2019-03-24T18:25:12.597Z,54.08
2019-03-24T18:27:43.955Z,54.50
2019-03-24T18:30:15.816Z,54.76
2019-03-24T18:32:47.183Z,54.76
2019-03-24T18:35:18.858Z,54.96
2019-03-24T18:37:50.485Z,54.87
2019-03-24T18:40:21.908Z,54.59
2019-03-24T18:42:53.588Z,54.16
2019-03-24T18:45:24.887Z,54.34
2019-03-24T18:47:56.304Z,54.67
2019-03-24T18:50:27.852Z,55.37
2019-03-24T18:52:59.535Z,56.04
2019-03-24T18:55:31.222Z,56.86
2019-03-24T18:58:02.819Z,57.35
2019-03-24T19:00:34.191Z,57.02
2019-03-24T19:03:05.747Z,58.05
2019-03-24T19:05:37.115Z,58.25
2019-03-24T19:08:09.271Z,58.17
2019-03-24T19:10:40.644Z,58.21
2019-03-24T19:13:12.166Z,59.04
2019-03-24T19:15:43.899Z,58.92
2019-03-24T19:18:15.394Z,59.00
2019-03-24T19:20:46.685Z,58.62
2019-03-24T19:23:18.827Z,59.31
2019-03-24T19:25:50.184Z,58.48
2019-03-24T19:28:21.492Z,59.18
2019-03-24T19:30:53.190Z,59.67
2019-03-24T19:33:24.571Z,59.53
2019-03-24T19:35:56.364Z,59.51
2019-03-24T19:38:28.215Z,60.01
2019-03-24T19:40:59.623Z,60.25
2019-03-24T19:43:30.910Z,60.49
2019-03-24T19:46:02.255Z,61.14
2019-03-24T19:48:34.009Z,60.54
2019-03-24T19:51:07.181Z,61.27
2019-03-24T19:53:38.597Z,61.75
2019-03-24T19:56:10.041Z,62.26
2019-03-24T19:58:41.440Z,62.65
2019-03-24T20:01:12.978Z,63.19
2019-03-24T20:03:44.984Z,62.77
2019-03-24T20:06:17.395Z,63.13
2019-03-24T20:08:50.946Z,63.50
2019-03-24T20:11:22.399Z,62.83
2019-03-24T20:13:54.300Z,63.50
2019-03-24T20:16:25.887Z,63.07
2019-03-24T20:18:57.295Z,63.69
2019-03-24T20:21:28.821Z,64.33
2019-03-24T20:24:01.402Z,64.43
2019-03-24T20:26:32.947Z,64.97
2019-03-24T20:29:05.604Z,65.16
2019-03-24T20:31:37.448Z,65.44
2019-03-24T20:34:09.537Z,66.13
2019-03-24T20:36:41.438Z,66.22
2019-03-24T20:39:13.297Z,66.29
2019-03-24T20:41:44.977Z,66.84
2019-03-24T20:44:17.570Z,67.94
2019-03-24T20:46:49.748Z,68.36
2019-03-24T20:49:22.157Z,69.14
2019-03-24T20:51:53.697Z,68.54
2019-03-24T20:54:25.863Z,68.48
2019-03-24T20:56:58.090Z,69.33
2019-03-24T20:59:33.555Z,69.10
2019-03-24T21:02:05.188Z,69.34
2019-03-24T21:04:36.606Z,69.79
2019-03-24T21:07:10.942Z,69.90
2019-03-24T21:09:42.719Z,69.71
2019-03-24T21:12:14.357Z,70.48
2019-03-24T21:14:45.677Z,70.45
2019-03-24T21:17:17.718Z,70.75
2019-03-24T21:19:49.140Z,70.55
2019-03-24T21:22:20.536Z,71.04
2019-03-24T21:24:52.021Z,70.55
2019-03-24T21:27:23.383Z,70.00
2019-03-24T21:29:55.129Z,71.04
2019-03-24T21:32:26.555Z,70.90
2019-03-24T21:34:57.903Z,71.55
2019-03-24T21:37:29.189Z,71.17
2019-03-24T21:40:00.691Z,71.54
2019-03-24T21:42:32.019Z,71.84
2019-03-24T21:45:03.694Z,72.77
2019-03-24T21:47:35.197Z,72.63
2019-03-24T21:50:07.168Z,73.07
2019-03-24T21:52:38.512Z,73.60
2019-03-24T21:55:10.353Z,73.66
2019-03-24T21:57:41.753Z,74.17
2019-03-24T22:00:14.457Z,74.55
2019-03-24T22:02:46.027Z,75.35
2019-03-24T22:05:17.617Z,76.29
2019-03-24T22:07:49.340Z,77.22
2019-03-24T22:10:21.146Z,77.44
2019-03-24T22:12:52.898Z,77.85
2019-03-24T22:15:24.323Z,78.46
2019-03-24T22:17:55.800Z,79.11
2019-03-24T22:20:27.607Z,79.29
2019-03-24T22:22:59.313Z,80.10
2019-03-24T22:25:30.703Z,80.12
2019-03-24T22:28:02.432Z,80.40
2019-03-24T22:30:33.925Z,79.99
2019-03-24T22:33:05.624Z,79.96
2019-03-24T22:35:38.413Z,79.93
2019-03-24T22:38:09.754Z,80.10
2019-03-24T22:40:41.042Z,80.36
2019-03-24T22:43:12.389Z,79.90
2019-03-24T22:45:44.326Z,79.47
2019-03-24T22:48:15.707Z,79.61
2019-03-24T22:50:47.335Z,79.51
2019-03-24T22:53:19.000Z,79.25
2019-03-24T22:55:50.638Z,79.55
2019-03-24T22:58:22.301Z,79.42
2019-03-24T23:00:55.337Z,79.44
2019-03-24T23:03:26.841Z,79.72
2019-03-24T23:05:58.164Z,79.52
2019-03-24T23:08:30.261Z,79.61
2019-03-24T23:11:01.616Z,79.69
2019-03-24T23:13:33.182Z,79.43
2019-03-24T23:16:04.598Z,79.61
2019-03-24T23:18:36.076Z,79.94
2019-03-24T23:21:07.381Z,80.61
2019-03-24T23:23:39.033Z,79.75
2019-03-24T23:26:10.314Z,80.11
2019-03-24T23:28:41.802Z,79.67
2019-03-24T23:31:13.179Z,80.30
2019-03-24T23:33:44.744Z,80.09
2019-03-24T23:36:16.055Z,80.29
2019-03-24T23:38:47.396Z,80.41
2019-03-24T23:41:19.023Z,80.77
2019-03-24T23:43:50.265Z,80.28
2019-03-24T23:46:21.660Z,80.19
2019-03-24T23:48:53.274Z,80.35
2019-03-24T23:51:24.878Z,80.11
2019-03-24T23:53:56.191Z,80.14
2019-03-24T23:56:27.471Z,79.98
2019-03-24T23:58:58.787Z,80.24
